sensor_id;sensor_type;location;lat;lon;timestamp;P1;durP1;ratioP1;P2;durP2;ratioP2
37877;SDS011;23715;53.652;8.516;2023-07-09T00:02:19;12.75;;;11.63;;
37877;SDS011;23715;53.652;8.516;2023-07-09T00:12:26;13.25;;;12.07;;
37877;SDS011;23715;53.652;8.516;2023-07-09T00:22:28;12.95;;;11.95;;
37877;SDS011;23715;53.652;8.516;2023-07-09T00:32:29;13.60;;;11.80;;
37877;SDS011;23715;53.652;8.516;2023-07-09T00:37:29;13.53;;;12.43;;
37877;SDS011;23715;53.652;8.516;2023-07-09T00:47:39;13.08;;;11.75;;
37877;SDS011;23715;53.652;8.516;2023-07-09T00:52:43;13.63;;;12.40;;
37877;SDS011;23715;53.652;8.516;2023-07-09T00:57:44;13.20;;;11.93;;
37877;SDS011;23715;53.652;8.516;2023-07-09T01:02:50;12.53;;;11.53;;
37877;SDS011;23715;53.652;8.516;2023-07-09T01:07:51;12.35;;;11.18;;
37877;SDS011;23715;53.652;8.516;2023-07-09T01:12:51;12.00;;;10.35;;
37877;SDS011;23715;53.652;8.516;2023-07-09T01:17:52;11.65;;;10.60;;
37877;SDS011;23715;53.652;8.516;2023-07-09T01:22:53;11.63;;;10.48;;
37877;SDS011;23715;53.652;8.516;2023-07-09T01:27:57;14.00;;;9.75;;
37877;SDS011;23715;53.652;8.516;2023-07-09T01:32:59;11.83;;;9.70;;
37877;SDS011;23715;53.652;8.516;2023-07-09T01:38:01;10.90;;;9.80;;
37877;SDS011;23715;53.652;8.516;2023-07-09T01:43:03;9.83;;;8.98;;
37877;SDS011;23715;53.652;8.516;2023-07-09T01:48:07;10.72;;;9.63;;
37877;SDS011;23715;53.652;8.516;2023-07-09T01:53:12;10.90;;;9.73;;
37877;SDS011;23715;53.652;8.516;2023-07-09T01:58:14;10.68;;;9.55;;
37877;SDS011;23715;53.652;8.516;2023-07-09T02:03:14;9.90;;;8.90;;
37877;SDS011;23715;53.652;8.516;2023-07-09T02:08:16;12.00;;;8.18;;
37877;SDS011;23715;53.652;8.516;2023-07-09T02:13:16;9.40;;;8.50;;
37877;SDS011;23715;53.652;8.516;2023-07-09T02:18:16;9.88;;;8.80;;
37877;SDS011;23715;53.652;8.516;2023-07-09T02:23:17;9.60;;;8.70;;
37877;SDS011;23715;53.652;8.516;2023-07-09T02:28:17;9.23;;;8.38;;
37877;SDS011;23715;53.652;8.516;2023-07-09T02:33:17;10.55;;;9.40;;
37877;SDS011;23715;53.652;8.516;2023-07-09T02:38:18;9.60;;;8.58;;
37877;SDS011;23715;53.652;8.516;2023-07-09T02:48:18;10.10;;;9.20;;
37877;SDS011;23715;53.652;8.516;2023-07-09T02:53:18;10.35;;;8.98;;
37877;SDS011;23715;53.652;8.516;2023-07-09T02:58:19;9.20;;;8.40;;
37877;SDS011;23715;53.652;8.516;2023-07-09T03:03:20;10.58;;;8.95;;
37877;SDS011;23715;53.652;8.516;2023-07-09T03:08:20;12.23;;;9.53;;
37877;SDS011;23715;53.652;8.516;2023-07-09T03:13:21;10.60;;;9.40;;
37877;SDS011;23715;53.652;8.516;2023-07-09T03:18:21;12.82;;;9.80;;
37877;SDS011;23715;53.652;8.516;2023-07-09T03:23:22;11.33;;;8.68;;
37877;SDS011;23715;53.652;8.516;2023-07-09T03:28:24;9.88;;;8.83;;
37877;SDS011;23715;53.652;8.516;2023-07-09T03:38:24;9.25;;;8.35;;
37877;SDS011;23715;53.652;8.516;2023-07-09T03:43:25;11.20;;;9.15;;
37877;SDS011;23715;53.652;8.516;2023-07-09T03:53:25;11.03;;;9.13;;
37877;SDS011;23715;53.652;8.516;2023-07-09T03:58:25;10.08;;;8.90;;
37877;SDS011;23715;53.652;8.516;2023-07-09T04:03:26;10.25;;;9.28;;
37877;SDS011;23715;53.652;8.516;2023-07-09T04:08:26;14.43;;;9.40;;
37877;SDS011;23715;53.652;8.516;2023-07-09T04:13:26;9.83;;;8.85;;
37877;SDS011;23715;53.652;8.516;2023-07-09T04:18:27;10.40;;;9.05;;
37877;SDS011;23715;53.652;8.516;2023-07-09T04:23:27;11.65;;;10.60;;
37877;SDS011;23715;53.652;8.516;2023-07-09T04:28:28;10.72;;;9.63;;
37877;SDS011;23715;53.652;8.516;2023-07-09T04:33:28;11.68;;;10.28;;
37877;SDS011;23715;53.652;8.516;2023-07-09T04:43:28;16.42;;;10.63;;
37877;SDS011;23715;53.652;8.516;2023-07-09T04:48:30;11.57;;;10.48;;
37877;SDS011;23715;53.652;8.516;2023-07-09T04:58:30;11.30;;;10.05;;
37877;SDS011;23715;53.652;8.516;2023-07-09T05:03:30;11.83;;;10.75;;
37877;SDS011;23715;53.652;8.516;2023-07-09T05:08:30;18.40;;;10.93;;
37877;SDS011;23715;53.652;8.516;2023-07-09T05:13:30;11.30;;;10.38;;
37877;SDS011;23715;53.652;8.516;2023-07-09T05:18:36;10.85;;;9.85;;
37877;SDS011;23715;53.652;8.516;2023-07-09T05:23:39;10.40;;;9.38;;
37877;SDS011;23715;53.652;8.516;2023-07-09T05:28:38;12.47;;;10.43;;
37877;SDS011;23715;53.652;8.516;2023-07-09T05:38:38;10.85;;;9.78;;
37877;SDS011;23715;53.652;8.516;2023-07-09T05:43:38;10.90;;;9.78;;
37877;SDS011;23715;53.652;8.516;2023-07-09T05:48:39;12.75;;;10.78;;
37877;SDS011;23715;53.652;8.516;2023-07-09T05:53:40;13.45;;;10.53;;
37877;SDS011;23715;53.652;8.516;2023-07-09T05:58:41;13.70;;;11.93;;
37877;SDS011;23715;53.652;8.516;2023-07-09T06:03:41;12.55;;;11.30;;
37877;SDS011;23715;53.652;8.516;2023-07-09T06:08:41;11.80;;;10.15;;
37877;SDS011;23715;53.652;8.516;2023-07-09T06:13:44;10.82;;;10.03;;
37877;SDS011;23715;53.652;8.516;2023-07-09T06:18:48;11.00;;;10.13;;
37877;SDS011;23715;53.652;8.516;2023-07-09T06:23:48;12.03;;;10.85;;
37877;SDS011;23715;53.652;8.516;2023-07-09T06:28:50;12.00;;;11.03;;
37877;SDS011;23715;53.652;8.516;2023-07-09T06:33:50;12.95;;;11.75;;
37877;SDS011;23715;53.652;8.516;2023-07-09T06:38:51;12.43;;;11.43;;
37877;SDS011;23715;53.652;8.516;2023-07-09T06:43:56;13.90;;;12.50;;
37877;SDS011;23715;53.652;8.516;2023-07-09T06:48:58;13.65;;;12.53;;
37877;SDS011;23715;53.652;8.516;2023-07-09T06:53:59;13.83;;;12.73;;
37877;SDS011;23715;53.652;8.516;2023-07-09T06:59:00;13.50;;;12.20;;
37877;SDS011;23715;53.652;8.516;2023-07-09T07:04:04;13.35;;;12.18;;
37877;SDS011;23715;53.652;8.516;2023-07-09T07:09:05;14.07;;;12.82;;
37877;SDS011;23715;53.652;8.516;2023-07-09T07:14:06;14.23;;;12.93;;
37877;SDS011;23715;53.652;8.516;2023-07-09T07:19:07;13.50;;;12.40;;
37877;SDS011;23715;53.652;8.516;2023-07-09T07:24:08;14.15;;;12.95;;
37877;SDS011;23715;53.652;8.516;2023-07-09T07:29:08;13.50;;;12.43;;
37877;SDS011;23715;53.652;8.516;2023-07-09T07:34:08;13.08;;;11.95;;
37877;SDS011;23715;53.652;8.516;2023-07-09T07:39:09;16.32;;;12.58;;
37877;SDS011;23715;53.652;8.516;2023-07-09T07:44:10;14.35;;;12.88;;
37877;SDS011;23715;53.652;8.516;2023-07-09T07:49:10;14.40;;;13.13;;
37877;SDS011;23715;53.652;8.516;2023-07-09T07:54:11;15.07;;;13.67;;
37877;SDS011;23715;53.652;8.516;2023-07-09T07:59:11;13.80;;;12.75;;
37877;SDS011;23715;53.652;8.516;2023-07-09T08:04:17;14.38;;;13.30;;
37877;SDS011;23715;53.652;8.516;2023-07-09T08:09:15;14.43;;;13.43;;
37877;SDS011;23715;53.652;8.516;2023-07-09T08:14:15;15.03;;;13.83;;
37877;SDS011;23715;53.652;8.516;2023-07-09T08:19:17;14.23;;;13.13;;
37877;SDS011;23715;53.652;8.516;2023-07-09T08:24:20;14.58;;;13.48;;
37877;SDS011;23715;53.652;8.516;2023-07-09T08:34:22;14.80;;;13.60;;
37877;SDS011;23715;53.652;8.516;2023-07-09T08:39:23;14.90;;;13.53;;
37877;SDS011;23715;53.652;8.516;2023-07-09T08:49:39;15.90;;;14.50;;
37877;SDS011;23715;53.652;8.516;2023-07-09T08:54:43;14.60;;;13.60;;
37877;SDS011;23715;53.652;8.516;2023-07-09T08:59:46;13.72;;;12.63;;
37877;SDS011;23715;53.652;8.516;2023-07-09T09:04:49;14.83;;;13.70;;
37877;SDS011;23715;53.652;8.516;2023-07-09T09:09:57;14.15;;;12.95;;
37877;SDS011;23715;53.652;8.516;2023-07-09T09:15:01;14.03;;;13.03;;
37877;SDS011;23715;53.652;8.516;2023-07-09T09:20:17;15.90;;;14.40;;
37877;SDS011;23715;53.652;8.516;2023-07-09T09:25:23;14.83;;;13.30;;
37877;SDS011;23715;53.652;8.516;2023-07-09T09:30:25;15.00;;;13.70;;
37877;SDS011;23715;53.652;8.516;2023-07-09T09:35:27;16.05;;;13.43;;
37877;SDS011;23715;53.652;8.516;2023-07-09T09:40:29;14.07;;;12.88;;
37877;SDS011;23715;53.652;8.516;2023-07-09T09:45:33;12.88;;;11.95;;
37877;SDS011;23715;53.652;8.516;2023-07-09T09:50:35;14.73;;;13.62;;
37877;SDS011;23715;53.652;8.516;2023-07-09T09:55:37;14.78;;;13.68;;
37877;SDS011;23715;53.652;8.516;2023-07-09T10:00:39;15.03;;;13.78;;
37877;SDS011;23715;53.652;8.516;2023-07-09T10:05:48;15.83;;;14.58;;
37877;SDS011;23715;53.652;8.516;2023-07-09T10:10:45;15.05;;;13.93;;
37877;SDS011;23715;53.652;8.516;2023-07-09T10:15:48;14.85;;;13.68;;
37877;SDS011;23715;53.652;8.516;2023-07-09T10:21:14;14.28;;;13.28;;
37877;SDS011;23715;53.652;8.516;2023-07-09T10:26:14;14.18;;;13.13;;
37877;SDS011;23715;53.652;8.516;2023-07-09T10:31:34;13.93;;;12.93;;
37877;SDS011;23715;53.652;8.516;2023-07-09T10:42:18;14.63;;;13.55;;
37877;SDS011;23715;53.652;8.516;2023-07-09T10:47:25;15.13;;;14.07;;
37877;SDS011;23715;53.652;8.516;2023-07-09T10:52:27;15.10;;;13.95;;
37877;SDS011;23715;53.652;8.516;2023-07-09T11:03:02;15.08;;;13.88;;
37877;SDS011;23715;53.652;8.516;2023-07-09T11:08:15;14.35;;;13.28;;
37877;SDS011;23715;53.652;8.516;2023-07-09T11:13:28;15.87;;;14.60;;
37877;SDS011;23715;53.652;8.516;2023-07-09T11:18:32;15.17;;;14.07;;
37877;SDS011;23715;53.652;8.516;2023-07-09T11:23:38;13.95;;;12.85;;
37877;SDS011;23715;53.652;8.516;2023-07-09T11:29:06;14.78;;;13.78;;
37877;SDS011;23715;53.652;8.516;2023-07-09T11:34:15;15.65;;;14.20;;
37877;SDS011;23715;53.652;8.516;2023-07-09T11:39:19;15.43;;;14.10;;
37877;SDS011;23715;53.652;8.516;2023-07-09T11:44:25;15.88;;;14.50;;
37877;SDS011;23715;53.652;8.516;2023-07-09T11:49:28;16.17;;;14.90;;
37877;SDS011;23715;53.652;8.516;2023-07-09T11:54:36;15.63;;;14.40;;
37877;SDS011;23715;53.652;8.516;2023-07-09T11:59:41;15.47;;;14.37;;
37877;SDS011;23715;53.652;8.516;2023-07-09T12:04:41;16.07;;;14.65;;
37877;SDS011;23715;53.652;8.516;2023-07-09T12:09:45;14.95;;;13.62;;
37877;SDS011;23715;53.652;8.516;2023-07-09T12:14:49;15.40;;;14.28;;
37877;SDS011;23715;53.652;8.516;2023-07-09T12:19:51;15.00;;;13.98;;
37877;SDS011;23715;53.652;8.516;2023-07-09T12:24:52;14.70;;;13.60;;
37877;SDS011;23715;53.652;8.516;2023-07-09T12:29:54;15.05;;;13.95;;
37877;SDS011;23715;53.652;8.516;2023-07-09T12:34:56;16.77;;;15.38;;
37877;SDS011;23715;53.652;8.516;2023-07-09T12:39:56;15.80;;;14.50;;
37877;SDS011;23715;53.652;8.516;2023-07-09T12:45:00;15.75;;;14.40;;
37877;SDS011;23715;53.652;8.516;2023-07-09T12:50:01;15.78;;;14.68;;
37877;SDS011;23715;53.652;8.516;2023-07-09T12:55:18;14.95;;;13.85;;
37877;SDS011;23715;53.652;8.516;2023-07-09T13:00:32;16.75;;;15.32;;
37877;SDS011;23715;53.652;8.516;2023-07-09T13:05:32;15.20;;;13.87;;
37877;SDS011;23715;53.652;8.516;2023-07-09T13:10:38;14.93;;;13.83;;
37877;SDS011;23715;53.652;8.516;2023-07-09T13:15:43;15.90;;;14.53;;
37877;SDS011;23715;53.652;8.516;2023-07-09T13:20:45;15.10;;;14.00;;
37877;SDS011;23715;53.652;8.516;2023-07-09T13:25:46;15.35;;;14.15;;
37877;SDS011;23715;53.652;8.516;2023-07-09T13:30:50;17.05;;;15.65;;
37877;SDS011;23715;53.652;8.516;2023-07-09T13:35:51;16.48;;;15.18;;
37877;SDS011;23715;53.652;8.516;2023-07-09T13:41:09;17.70;;;16.30;;
37877;SDS011;23715;53.652;8.516;2023-07-09T13:46:03;17.40;;;16.15;;
37877;SDS011;23715;53.652;8.516;2023-07-09T13:51:17;15.63;;;14.43;;
37877;SDS011;23715;53.652;8.516;2023-07-09T13:56:19;16.57;;;15.13;;
37877;SDS011;23715;53.652;8.516;2023-07-09T14:01:23;16.23;;;14.93;;
37877;SDS011;23715;53.652;8.516;2023-07-09T14:06:29;15.48;;;14.30;;
37877;SDS011;23715;53.652;8.516;2023-07-09T14:11:25;14.87;;;13.88;;
37877;SDS011;23715;53.652;8.516;2023-07-09T14:16:26;15.60;;;14.33;;
37877;SDS011;23715;53.652;8.516;2023-07-09T14:21:26;15.10;;;13.70;;
37877;SDS011;23715;53.652;8.516;2023-07-09T14:26:26;15.83;;;14.58;;
37877;SDS011;23715;53.652;8.516;2023-07-09T14:31:27;14.93;;;13.93;;
37877;SDS011;23715;53.652;8.516;2023-07-09T14:36:30;15.50;;;14.33;;
37877;SDS011;23715;53.652;8.516;2023-07-09T14:41:30;15.90;;;14.60;;
37877;SDS011;23715;53.652;8.516;2023-07-09T14:46:31;14.58;;;13.48;;
37877;SDS011;23715;53.652;8.516;2023-07-09T14:51:31;14.33;;;13.22;;
37877;SDS011;23715;53.652;8.516;2023-07-09T14:56:31;14.55;;;13.35;;
37877;SDS011;23715;53.652;8.516;2023-07-09T15:01:31;15.75;;;14.13;;
37877;SDS011;23715;53.652;8.516;2023-07-09T15:06:32;15.15;;;14.05;;
37877;SDS011;23715;53.652;8.516;2023-07-09T15:11:32;15.88;;;14.55;;
37877;SDS011;23715;53.652;8.516;2023-07-09T15:16:32;15.32;;;14.05;;
37877;SDS011;23715;53.652;8.516;2023-07-09T15:21:34;14.93;;;13.88;;
37877;SDS011;23715;53.652;8.516;2023-07-09T15:26:35;15.40;;;13.93;;
37877;SDS011;23715;53.652;8.516;2023-07-09T15:31:35;14.43;;;13.33;;
37877;SDS011;23715;53.652;8.516;2023-07-09T15:36:35;14.10;;;12.90;;
37877;SDS011;23715;53.652;8.516;2023-07-09T15:41:35;14.20;;;13.10;;
37877;SDS011;23715;53.652;8.516;2023-07-09T15:46:36;14.95;;;13.53;;
37877;SDS011;23715;53.652;8.516;2023-07-09T15:51:39;14.78;;;13.40;;
37877;SDS011;23715;53.652;8.516;2023-07-09T15:56:41;15.13;;;14.03;;
37877;SDS011;23715;53.652;8.516;2023-07-09T16:01:42;14.40;;;13.13;;
37877;SDS011;23715;53.652;8.516;2023-07-09T16:06:42;14.60;;;13.40;;
37877;SDS011;23715;53.652;8.516;2023-07-09T16:11:47;15.10;;;13.68;;
37877;SDS011;23715;53.652;8.516;2023-07-09T16:16:46;14.33;;;13.00;;
37877;SDS011;23715;53.652;8.516;2023-07-09T16:21:50;16.67;;;15.20;;
37877;SDS011;23715;53.652;8.516;2023-07-09T16:26:53;15.25;;;13.98;;
37877;SDS011;23715;53.652;8.516;2023-07-09T16:31:54;14.90;;;13.80;;
37877;SDS011;23715;53.652;8.516;2023-07-09T16:36:55;15.60;;;14.37;;
37877;SDS011;23715;53.652;8.516;2023-07-09T16:41:58;15.10;;;13.68;;
37877;SDS011;23715;53.652;8.516;2023-07-09T16:46:58;14.98;;;13.70;;
37877;SDS011;23715;53.652;8.516;2023-07-09T16:51:59;16.48;;;14.65;;
37877;SDS011;23715;53.652;8.516;2023-07-09T16:57:01;15.13;;;13.75;;
37877;SDS011;23715;53.652;8.516;2023-07-09T17:02:01;15.53;;;14.07;;
37877;SDS011;23715;53.652;8.516;2023-07-09T17:07:03;15.10;;;13.88;;
37877;SDS011;23715;53.652;8.516;2023-07-09T17:12:03;15.83;;;14.35;;
37877;SDS011;23715;53.652;8.516;2023-07-09T17:17:12;14.90;;;13.60;;
37877;SDS011;23715;53.652;8.516;2023-07-09T17:22:18;14.45;;;13.10;;
37877;SDS011;23715;53.652;8.516;2023-07-09T17:27:20;13.70;;;12.60;;
37877;SDS011;23715;53.652;8.516;2023-07-09T17:32:21;13.43;;;12.40;;
37877;SDS011;23715;53.652;8.516;2023-07-09T17:37:21;14.85;;;13.58;;
37877;SDS011;23715;53.652;8.516;2023-07-09T17:42:21;14.53;;;13.05;;
37877;SDS011;23715;53.652;8.516;2023-07-09T17:47:22;14.65;;;13.25;;
37877;SDS011;23715;53.652;8.516;2023-07-09T17:52:22;15.03;;;13.53;;
37877;SDS011;23715;53.652;8.516;2023-07-09T17:57:28;15.08;;;13.78;;
37877;SDS011;23715;53.652;8.516;2023-07-09T18:02:26;14.37;;;13.07;;
37877;SDS011;23715;53.652;8.516;2023-07-09T18:07:31;19.48;;;13.98;;
37877;SDS011;23715;53.652;8.516;2023-07-09T18:12:31;15.87;;;14.37;;
